Terminal Aerodrome Forecast
Issued by NWS

Home | Current Version | Previous Version | Text Only | Print | Product List | Glossary On
Versions: 1 2 3 4 5 6 7 8 9 10 11 12 13 14 15
000
FTUS41 KBOX 242320
TAFHYA
TAF
KHYA 242320Z 2500/2524 33019G23KT P6SM FEW060
     FM250900 33011G19KT P6SM SKC
     FM251500 32007KT P6SM FEW200
     FM251800 VRB03KT P6SM FEW150
     FM252200 23007KT P6SM SCT120=

USA.gov is the U.S. government's official web portal to all federal, state and local government web resources and services.